sensor_id;sensor_type;location;lat;lon;timestamp;P1;durP1;ratioP1;P2;durP2;ratioP2
25345;SDS011;13300;51.032;3.710;2023-02-12T00:00:07;20.63;;;14.43;;
25345;SDS011;13300;51.032;3.710;2023-02-12T00:02:34;22.73;;;15.35;;
25345;SDS011;13300;51.032;3.710;2023-02-12T00:05:00;20.88;;;14.55;;
25345;SDS011;13300;51.032;3.710;2023-02-12T00:07:28;19.92;;;14.32;;
25345;SDS011;13300;51.032;3.710;2023-02-12T00:09:54;21.35;;;14.30;;
25345;SDS011;13300;51.032;3.710;2023-02-12T00:12:20;21.70;;;14.77;;
25345;SDS011;13300;51.032;3.710;2023-02-12T00:14:46;19.75;;;14.57;;
25345;SDS011;13300;51.032;3.710;2023-02-12T00:17:12;19.52;;;14.07;;
25345;SDS011;13300;51.032;3.710;2023-02-12T00:19:38;18.95;;;13.73;;
25345;SDS011;13300;51.032;3.710;2023-02-12T00:22:03;21.55;;;15.20;;
25345;SDS011;13300;51.032;3.710;2023-02-12T00:24:29;19.48;;;13.80;;
25345;SDS011;13300;51.032;3.710;2023-02-12T00:26:55;19.25;;;13.50;;
25345;SDS011;13300;51.032;3.710;2023-02-12T00:29:21;17.67;;;12.85;;
25345;SDS011;13300;51.032;3.710;2023-02-12T00:31:46;16.52;;;12.73;;
25345;SDS011;13300;51.032;3.710;2023-02-12T00:34:13;18.92;;;12.95;;
25345;SDS011;13300;51.032;3.710;2023-02-12T00:36:39;16.27;;;12.13;;
25345;SDS011;13300;51.032;3.710;2023-02-12T00:39:05;15.32;;;11.93;;
25345;SDS011;13300;51.032;3.710;2023-02-12T00:41:32;15.60;;;11.82;;
25345;SDS011;13300;51.032;3.710;2023-02-12T00:43:59;13.68;;;11.48;;
25345;SDS011;13300;51.032;3.710;2023-02-12T00:46:24;14.60;;;11.40;;
25345;SDS011;13300;51.032;3.710;2023-02-12T00:48:50;12.32;;;10.65;;
25345;SDS011;13300;51.032;3.710;2023-02-12T00:51:16;13.07;;;11.20;;
25345;SDS011;13300;51.032;3.710;2023-02-12T00:53:42;14.75;;;11.40;;
25345;SDS011;13300;51.032;3.710;2023-02-12T00:56:09;14.20;;;11.90;;
25345;SDS011;13300;51.032;3.710;2023-02-12T00:58:37;15.60;;;12.25;;
25345;SDS011;13300;51.032;3.710;2023-02-12T01:01:03;17.05;;;12.15;;
25345;SDS011;13300;51.032;3.710;2023-02-12T01:03:29;18.27;;;12.10;;
25345;SDS011;13300;51.032;3.710;2023-02-12T01:05:55;16.50;;;11.52;;
25345;SDS011;13300;51.032;3.710;2023-02-12T01:08:21;14.63;;;11.15;;
25345;SDS011;13300;51.032;3.710;2023-02-12T01:10:53;18.98;;;11.52;;
25345;SDS011;13300;51.032;3.710;2023-02-12T01:13:23;20.58;;;13.35;;
25345;SDS011;13300;51.032;3.710;2023-02-12T01:15:59;18.17;;;12.82;;
25345;SDS011;13300;51.032;3.710;2023-02-12T01:18:28;18.58;;;12.80;;
25345;SDS011;13300;51.032;3.710;2023-02-12T01:20:53;20.38;;;13.00;;
25345;SDS011;13300;51.032;3.710;2023-02-12T01:23:19;17.08;;;12.82;;
25345;SDS011;13300;51.032;3.710;2023-02-12T01:25:45;18.60;;;13.20;;
25345;SDS011;13300;51.032;3.710;2023-02-12T01:28:11;17.90;;;13.75;;
25345;SDS011;13300;51.032;3.710;2023-02-12T01:30:36;21.63;;;13.40;;
25345;SDS011;13300;51.032;3.710;2023-02-12T01:33:03;22.38;;;15.00;;
25345;SDS011;13300;51.032;3.710;2023-02-12T01:35:28;19.08;;;13.25;;
25345;SDS011;13300;51.032;3.710;2023-02-12T01:37:54;19.15;;;13.45;;
25345;SDS011;13300;51.032;3.710;2023-02-12T01:40:20;19.83;;;14.02;;
25345;SDS011;13300;51.032;3.710;2023-02-12T01:42:46;18.45;;;12.85;;
25345;SDS011;13300;51.032;3.710;2023-02-12T01:47:38;20.13;;;14.15;;
25345;SDS011;13300;51.032;3.710;2023-02-12T01:50:05;16.92;;;13.20;;
25345;SDS011;13300;51.032;3.710;2023-02-12T01:52:34;18.23;;;13.63;;
25345;SDS011;13300;51.032;3.710;2023-02-12T01:55:03;17.50;;;13.00;;
25345;SDS011;13300;51.032;3.710;2023-02-12T01:57:32;19.50;;;14.63;;
25345;SDS011;13300;51.032;3.710;2023-02-12T02:00:02;19.63;;;14.05;;
25345;SDS011;13300;51.032;3.710;2023-02-12T02:04:59;18.35;;;13.40;;
25345;SDS011;13300;51.032;3.710;2023-02-12T02:07:26;20.52;;;14.15;;
25345;SDS011;13300;51.032;3.710;2023-02-12T02:09:52;19.27;;;15.38;;
25345;SDS011;13300;51.032;3.710;2023-02-12T02:12:19;20.83;;;15.52;;
25345;SDS011;13300;51.032;3.710;2023-02-12T02:15:03;17.50;;;14.27;;
25345;SDS011;13300;51.032;3.710;2023-02-12T02:26:12;21.00;;;15.65;;
25345;SDS011;13300;51.032;3.710;2023-02-12T02:31:42;21.30;;;16.10;;
25345;SDS011;13300;51.032;3.710;2023-02-12T02:39:25;21.73;;;15.52;;
25345;SDS011;13300;51.032;3.710;2023-02-12T02:44:52;18.85;;;15.65;;
25345;SDS011;13300;51.032;3.710;2023-02-12T02:47:22;20.67;;;16.55;;
25345;SDS011;13300;51.032;3.710;2023-02-12T02:49:56;21.83;;;16.48;;
25345;SDS011;13300;51.032;3.710;2023-02-12T02:52:47;20.77;;;16.30;;
25345;SDS011;13300;51.032;3.710;2023-02-12T02:55:19;21.38;;;16.45;;
25345;SDS011;13300;51.032;3.710;2023-02-12T02:57:49;22.77;;;16.90;;
25345;SDS011;13300;51.032;3.710;2023-02-12T03:00:21;26.50;;;18.23;;
25345;SDS011;13300;51.032;3.710;2023-02-12T03:03:08;23.92;;;17.75;;
25345;SDS011;13300;51.032;3.710;2023-02-12T03:05:54;22.90;;;17.85;;
25345;SDS011;13300;51.032;3.710;2023-02-12T03:08:26;23.40;;;18.58;;
25345;SDS011;13300;51.032;3.710;2023-02-12T03:11:04;24.75;;;17.83;;
25345;SDS011;13300;51.032;3.710;2023-02-12T03:13:36;22.67;;;18.35;;
25345;SDS011;13300;51.032;3.710;2023-02-12T03:16:17;23.65;;;18.70;;
25345;SDS011;13300;51.032;3.710;2023-02-12T03:21:57;26.45;;;18.92;;
25345;SDS011;13300;51.032;3.710;2023-02-12T03:30:08;24.63;;;18.88;;
25345;SDS011;13300;51.032;3.710;2023-02-12T03:35:30;26.30;;;20.25;;
25345;SDS011;13300;51.032;3.710;2023-02-12T03:38:25;25.83;;;16.42;;
25345;SDS011;13300;51.032;3.710;2023-02-12T03:40:58;22.52;;;18.40;;
25345;SDS011;13300;51.032;3.710;2023-02-12T03:46:27;28.02;;;19.05;;
25345;SDS011;13300;51.032;3.710;2023-02-12T03:49:26;22.80;;;17.55;;
25345;SDS011;13300;51.032;3.710;2023-02-12T03:51:53;27.90;;;18.70;;
25345;SDS011;13300;51.032;3.710;2023-02-12T03:54:20;26.60;;;18.75;;
25345;SDS011;13300;51.032;3.710;2023-02-12T03:59:18;27.13;;;19.08;;
25345;SDS011;13300;51.032;3.710;2023-02-12T04:01:45;26.15;;;18.55;;
25345;SDS011;13300;51.032;3.710;2023-02-12T04:04:13;27.02;;;19.42;;
25345;SDS011;13300;51.032;3.710;2023-02-12T04:06:39;27.48;;;18.77;;
25345;SDS011;13300;51.032;3.710;2023-02-12T04:09:09;28.05;;;18.33;;
25345;SDS011;13300;51.032;3.710;2023-02-12T04:11:43;27.92;;;19.40;;
25345;SDS011;13300;51.032;3.710;2023-02-12T04:26:10;26.05;;;19.42;;
25345;SDS011;13300;51.032;3.710;2023-02-12T04:31:38;27.63;;;19.48;;
25345;SDS011;13300;51.032;3.710;2023-02-12T04:39:37;26.98;;;19.35;;
25345;SDS011;13300;51.032;3.710;2023-02-12T04:42:05;27.38;;;20.67;;
25345;SDS011;13300;51.032;3.710;2023-02-12T04:44:32;25.02;;;19.60;;
25345;SDS011;13300;51.032;3.710;2023-02-12T04:47:01;27.13;;;20.05;;
25345;SDS011;13300;51.032;3.710;2023-02-12T04:49:27;32.40;;;21.67;;
25345;SDS011;13300;51.032;3.710;2023-02-12T04:51:53;32.90;;;22.27;;
25345;SDS011;13300;51.032;3.710;2023-02-12T04:54:19;28.83;;;21.27;;
25345;SDS011;13300;51.032;3.710;2023-02-12T04:56:46;31.40;;;21.30;;
25345;SDS011;13300;51.032;3.710;2023-02-12T04:59:12;32.15;;;22.45;;
25345;SDS011;13300;51.032;3.710;2023-02-12T05:01:39;32.22;;;21.63;;
25345;SDS011;13300;51.032;3.710;2023-02-12T05:04:05;35.20;;;23.08;;
25345;SDS011;13300;51.032;3.710;2023-02-12T05:06:35;31.45;;;22.38;;
25345;SDS011;13300;51.032;3.710;2023-02-12T05:09:02;32.67;;;22.73;;
25345;SDS011;13300;51.032;3.710;2023-02-12T05:11:29;32.00;;;22.65;;
25345;SDS011;13300;51.032;3.710;2023-02-12T05:13:54;33.88;;;24.15;;
25345;SDS011;13300;51.032;3.710;2023-02-12T05:16:20;33.47;;;23.95;;
25345;SDS011;13300;51.032;3.710;2023-02-12T05:18:46;31.88;;;21.42;;
25345;SDS011;13300;51.032;3.710;2023-02-12T05:21:12;32.30;;;22.02;;
25345;SDS011;13300;51.032;3.710;2023-02-12T05:23:39;34.95;;;22.58;;
25345;SDS011;13300;51.032;3.710;2023-02-12T05:26:07;33.65;;;23.55;;
25345;SDS011;13300;51.032;3.710;2023-02-12T05:28:38;32.97;;;22.85;;
25345;SDS011;13300;51.032;3.710;2023-02-12T05:31:05;31.35;;;22.20;;
25345;SDS011;13300;51.032;3.710;2023-02-12T05:33:32;34.30;;;22.48;;
25345;SDS011;13300;51.032;3.710;2023-02-12T05:36:17;32.13;;;22.80;;
25345;SDS011;13300;51.032;3.710;2023-02-12T05:38:47;32.83;;;22.60;;
25345;SDS011;13300;51.032;3.710;2023-02-12T05:41:17;36.70;;;22.77;;
25345;SDS011;13300;51.032;3.710;2023-02-12T05:43:45;35.00;;;22.90;;
25345;SDS011;13300;51.032;3.710;2023-02-12T05:46:11;32.53;;;24.00;;
25345;SDS011;13300;51.032;3.710;2023-02-12T05:48:37;31.85;;;22.75;;
25345;SDS011;13300;51.032;3.710;2023-02-12T05:51:05;32.10;;;24.02;;
25345;SDS011;13300;51.032;3.710;2023-02-12T05:53:33;31.40;;;24.27;;
25345;SDS011;13300;51.032;3.710;2023-02-12T05:56:10;34.03;;;24.30;;
25345;SDS011;13300;51.032;3.710;2023-02-12T05:58:43;33.53;;;24.00;;
25345;SDS011;13300;51.032;3.710;2023-02-12T06:01:13;35.83;;;25.10;;
25345;SDS011;13300;51.032;3.710;2023-02-12T06:03:49;36.17;;;24.25;;
25345;SDS011;13300;51.032;3.710;2023-02-12T06:06:15;39.10;;;25.98;;
25345;SDS011;13300;51.032;3.710;2023-02-12T06:08:41;36.22;;;24.90;;
25345;SDS011;13300;51.032;3.710;2023-02-12T06:11:08;44.67;;;26.65;;
25345;SDS011;13300;51.032;3.710;2023-02-12T06:13:36;45.03;;;26.90;;
25345;SDS011;13300;51.032;3.710;2023-02-12T06:16:02;39.80;;;25.15;;
25345;SDS011;13300;51.032;3.710;2023-02-12T06:18:28;35.80;;;25.02;;
25345;SDS011;13300;51.032;3.710;2023-02-12T06:20:54;38.65;;;25.23;;
25345;SDS011;13300;51.032;3.710;2023-02-12T06:23:21;39.72;;;25.55;;
25345;SDS011;13300;51.032;3.710;2023-02-12T06:25:50;41.10;;;25.88;;
25345;SDS011;13300;51.032;3.710;2023-02-12T06:28:20;36.58;;;24.92;;
25345;SDS011;13300;51.032;3.710;2023-02-12T06:30:46;32.97;;;23.92;;
25345;SDS011;13300;51.032;3.710;2023-02-12T06:33:12;34.15;;;23.05;;
25345;SDS011;13300;51.032;3.710;2023-02-12T06:35:38;34.28;;;23.60;;
25345;SDS011;13300;51.032;3.710;2023-02-12T06:38:04;41.22;;;26.02;;
25345;SDS011;13300;51.032;3.710;2023-02-12T06:40:30;35.35;;;25.13;;
25345;SDS011;13300;51.032;3.710;2023-02-12T06:42:55;38.53;;;24.55;;
25345;SDS011;13300;51.032;3.710;2023-02-12T06:45:21;38.97;;;24.10;;
25345;SDS011;13300;51.032;3.710;2023-02-12T06:47:47;33.58;;;23.58;;
25345;SDS011;13300;51.032;3.710;2023-02-12T06:50:13;37.65;;;24.02;;
25345;SDS011;13300;51.032;3.710;2023-02-12T06:52:39;35.42;;;23.80;;
25345;SDS011;13300;51.032;3.710;2023-02-12T06:55:04;40.13;;;24.95;;
25345;SDS011;13300;51.032;3.710;2023-02-12T06:57:30;35.58;;;23.50;;
25345;SDS011;13300;51.032;3.710;2023-02-12T06:59:56;37.83;;;23.25;;
25345;SDS011;13300;51.032;3.710;2023-02-12T07:02:22;37.78;;;23.02;;
25345;SDS011;13300;51.032;3.710;2023-02-12T07:04:48;34.95;;;22.80;;
25345;SDS011;13300;51.032;3.710;2023-02-12T07:07:14;37.38;;;24.52;;
25345;SDS011;13300;51.032;3.710;2023-02-12T07:09:39;33.60;;;21.80;;
25345;SDS011;13300;51.032;3.710;2023-02-12T07:12:05;33.92;;;22.05;;
25345;SDS011;13300;51.032;3.710;2023-02-12T07:14:31;29.63;;;21.27;;
25345;SDS011;13300;51.032;3.710;2023-02-12T07:16:57;32.17;;;22.10;;
25345;SDS011;13300;51.032;3.710;2023-02-12T07:19:23;33.25;;;22.60;;
25345;SDS011;13300;51.032;3.710;2023-02-12T07:21:49;32.35;;;21.45;;
25345;SDS011;13300;51.032;3.710;2023-02-12T07:24:15;36.65;;;23.35;;
25345;SDS011;13300;51.032;3.710;2023-02-12T07:26:42;35.42;;;23.30;;
25345;SDS011;13300;51.032;3.710;2023-02-12T07:29:08;34.42;;;22.60;;
25345;SDS011;13300;51.032;3.710;2023-02-12T07:31:34;34.67;;;22.40;;
25345;SDS011;13300;51.032;3.710;2023-02-12T07:34:00;36.65;;;23.85;;
25345;SDS011;13300;51.032;3.710;2023-02-12T07:36:27;37.50;;;23.17;;
25345;SDS011;13300;51.032;3.710;2023-02-12T07:38:55;36.90;;;23.30;;
25345;SDS011;13300;51.032;3.710;2023-02-12T07:41:22;34.35;;;23.15;;
25345;SDS011;13300;51.032;3.710;2023-02-12T07:43:52;33.85;;;22.38;;
25345;SDS011;13300;51.032;3.710;2023-02-12T07:46:20;38.97;;;23.85;;
25345;SDS011;13300;51.032;3.710;2023-02-12T07:48:54;38.03;;;24.02;;
25345;SDS011;13300;51.032;3.710;2023-02-12T07:51:20;39.22;;;24.45;;
25345;SDS011;13300;51.032;3.710;2023-02-12T07:53:47;38.75;;;24.38;;
25345;SDS011;13300;51.032;3.710;2023-02-12T07:56:14;37.38;;;25.42;;
25345;SDS011;13300;51.032;3.710;2023-02-12T07:58:45;39.58;;;24.90;;
25345;SDS011;13300;51.032;3.710;2023-02-12T08:01:29;40.22;;;26.08;;
25345;SDS011;13300;51.032;3.710;2023-02-12T08:04:01;39.08;;;24.90;;
25345;SDS011;13300;51.032;3.710;2023-02-12T08:06:30;37.58;;;25.13;;
25345;SDS011;13300;51.032;3.710;2023-02-12T08:08:58;39.45;;;25.27;;
25345;SDS011;13300;51.032;3.710;2023-02-12T08:11:25;39.35;;;26.23;;
25345;SDS011;13300;51.032;3.710;2023-02-12T08:13:52;38.13;;;26.27;;
25345;SDS011;13300;51.032;3.710;2023-02-12T08:16:19;38.17;;;24.83;;
25345;SDS011;13300;51.032;3.710;2023-02-12T08:18:47;42.10;;;26.25;;
25345;SDS011;13300;51.032;3.710;2023-02-12T08:21:17;41.33;;;25.42;;
25345;SDS011;13300;51.032;3.710;2023-02-12T08:23:47;36.60;;;24.23;;
25345;SDS011;13300;51.032;3.710;2023-02-12T08:26:18;36.60;;;24.87;;
25345;SDS011;13300;51.032;3.710;2023-02-12T08:28:59;32.42;;;21.75;;
25345;SDS011;13300;51.032;3.710;2023-02-12T08:31:28;34.40;;;23.33;;
25345;SDS011;13300;51.032;3.710;2023-02-12T08:33:55;34.17;;;24.02;;
25345;SDS011;13300;51.032;3.710;2023-02-12T08:36:22;36.60;;;24.25;;
25345;SDS011;13300;51.032;3.710;2023-02-12T08:38:49;34.20;;;23.65;;
25345;SDS011;13300;51.032;3.710;2023-02-12T08:41:20;36.72;;;23.75;;
25345;SDS011;13300;51.032;3.710;2023-02-12T08:43:48;32.03;;;22.13;;
25345;SDS011;13300;51.032;3.710;2023-02-12T08:46:15;39.78;;;23.85;;
25345;SDS011;13300;51.032;3.710;2023-02-12T08:48:43;36.67;;;24.70;;
25345;SDS011;13300;51.032;3.710;2023-02-12T08:51:19;37.20;;;23.45;;
25345;SDS011;13300;51.032;3.710;2023-02-12T08:53:47;36.08;;;24.15;;
25345;SDS011;13300;51.032;3.710;2023-02-12T08:56:16;42.63;;;26.23;;
25345;SDS011;13300;51.032;3.710;2023-02-12T08:58:42;44.35;;;27.65;;
25345;SDS011;13300;51.032;3.710;2023-02-12T09:01:09;39.97;;;26.05;;
25345;SDS011;13300;51.032;3.710;2023-02-12T09:03:37;45.45;;;27.65;;
25345;SDS011;13300;51.032;3.710;2023-02-12T09:06:03;36.70;;;24.83;;
25345;SDS011;13300;51.032;3.710;2023-02-12T09:08:30;34.70;;;23.23;;
25345;SDS011;13300;51.032;3.710;2023-02-12T09:10:56;34.00;;;23.70;;
25345;SDS011;13300;51.032;3.710;2023-02-12T09:13:22;35.40;;;25.38;;
25345;SDS011;13300;51.032;3.710;2023-02-12T09:15:48;31.25;;;22.50;;
25345;SDS011;13300;51.032;3.710;2023-02-12T09:18:14;31.95;;;21.80;;
25345;SDS011;13300;51.032;3.710;2023-02-12T09:20:41;29.88;;;22.30;;
25345;SDS011;13300;51.032;3.710;2023-02-12T09:23:09;29.67;;;21.63;;
25345;SDS011;13300;51.032;3.710;2023-02-12T09:25:40;28.73;;;19.35;;
25345;SDS011;13300;51.032;3.710;2023-02-12T09:28:06;31.15;;;21.73;;
25345;SDS011;13300;51.032;3.710;2023-02-12T09:30:32;29.50;;;21.40;;
25345;SDS011;13300;51.032;3.710;2023-02-12T09:33:01;26.98;;;20.20;;
25345;SDS011;13300;51.032;3.710;2023-02-12T09:35:28;27.85;;;20.48;;
25345;SDS011;13300;51.032;3.710;2023-02-12T09:37:53;29.15;;;20.90;;
25345;SDS011;13300;51.032;3.710;2023-02-12T09:40:20;29.15;;;20.45;;
25345;SDS011;13300;51.032;3.710;2023-02-12T09:43:05;24.02;;;18.27;;
25345;SDS011;13300;51.032;3.710;2023-02-12T09:45:45;25.08;;;16.73;;
25345;SDS011;13300;51.032;3.710;2023-02-12T09:51:02;20.25;;;14.82;;
25345;SDS011;13300;51.032;3.710;2023-02-12T09:53:32;19.17;;;13.93;;
25345;SDS011;13300;51.032;3.710;2023-02-12T09:56:02;21.27;;;14.88;;
25345;SDS011;13300;51.032;3.710;2023-02-12T09:58:34;21.52;;;15.23;;
25345;SDS011;13300;51.032;3.710;2023-02-12T10:01:13;22.77;;;17.37;;
25345;SDS011;13300;51.032;3.710;2023-02-12T10:03:45;21.95;;;16.42;;
25345;SDS011;13300;51.032;3.710;2023-02-12T10:06:16;23.25;;;17.25;;
25345;SDS011;13300;51.032;3.710;2023-02-12T10:20:30;27.20;;;20.38;;
25345;SDS011;13300;51.032;3.710;2023-02-12T10:28:50;27.50;;;19.67;;
25345;SDS011;13300;51.032;3.710;2023-02-12T10:31:23;25.98;;;19.13;;
25345;SDS011;13300;51.032;3.710;2023-02-12T10:33:50;20.45;;;15.75;;
25345;SDS011;13300;51.032;3.710;2023-02-12T10:39:17;28.00;;;17.75;;
25345;SDS011;13300;51.032;3.710;2023-02-12T10:41:46;27.10;;;18.48;;
25345;SDS011;13300;51.032;3.710;2023-02-12T10:44:19;21.05;;;16.50;;
25345;SDS011;13300;51.032;3.710;2023-02-12T10:46:45;24.25;;;17.70;;
25345;SDS011;13300;51.032;3.710;2023-02-12T10:49:12;22.33;;;17.10;;
25345;SDS011;13300;51.032;3.710;2023-02-12T10:54:37;23.75;;;17.45;;
25345;SDS011;13300;51.032;3.710;2023-02-12T10:59:39;35.75;;;18.85;;
25345;SDS011;13300;51.032;3.710;2023-02-12T11:02:19;26.95;;;19.35;;
25345;SDS011;13300;51.032;3.710;2023-02-12T11:04:48;26.15;;;18.00;;
25345;SDS011;13300;51.032;3.710;2023-02-12T11:07:14;32.17;;;20.70;;
25345;SDS011;13300;51.032;3.710;2023-02-12T11:12:52;22.02;;;17.40;;
25345;SDS011;13300;51.032;3.710;2023-02-12T11:15:02;27.00;;;19.42;;
25345;SDS011;13300;51.032;3.710;2023-02-12T11:17:39;21.20;;;17.15;;
25345;SDS011;13300;51.032;3.710;2023-02-12T11:25:57;21.85;;;16.63;;
25345;SDS011;13300;51.032;3.710;2023-02-12T11:28:25;27.08;;;17.73;;
25345;SDS011;13300;51.032;3.710;2023-02-12T11:30:53;26.73;;;17.98;;
25345;SDS011;13300;51.032;3.710;2023-02-12T11:33:44;24.17;;;16.60;;
25345;SDS011;13300;51.032;3.710;2023-02-12T11:36:13;21.55;;;16.33;;
25345;SDS011;13300;51.032;3.710;2023-02-12T11:38:47;25.80;;;17.75;;
25345;SDS011;13300;51.032;3.710;2023-02-12T11:41:34;28.98;;;17.85;;
25345;SDS011;13300;51.032;3.710;2023-02-12T11:44:12;22.52;;;15.88;;
25345;SDS011;13300;51.032;3.710;2023-02-12T11:47:10;23.10;;;15.13;;
25345;SDS011;13300;51.032;3.710;2023-02-12T11:49:51;20.98;;;14.30;;
25345;SDS011;13300;51.032;3.710;2023-02-12T11:52:22;23.00;;;13.98;;
25345;SDS011;13300;51.032;3.710;2023-02-12T11:54:50;20.70;;;13.32;;
25345;SDS011;13300;51.032;3.710;2023-02-12T12:00:04;22.75;;;14.05;;
25345;SDS011;13300;51.032;3.710;2023-02-12T12:05:53;18.67;;;12.43;;
25345;SDS011;13300;51.032;3.710;2023-02-12T12:08:55;20.42;;;13.00;;
25345;SDS011;13300;51.032;3.710;2023-02-12T12:17:47;19.10;;;13.15;;
25345;SDS011;13300;51.032;3.710;2023-02-12T12:23:34;21.60;;;13.18;;
25345;SDS011;13300;51.032;3.710;2023-02-12T12:26:23;22.42;;;13.82;;
25345;SDS011;13300;51.032;3.710;2023-02-12T12:28:56;19.00;;;13.70;;
25345;SDS011;13300;51.032;3.710;2023-02-12T12:31:28;21.33;;;13.82;;
25345;SDS011;13300;51.032;3.710;2023-02-12T12:36:41;22.60;;;16.60;;
25345;SDS011;13300;51.032;3.710;2023-02-12T12:47:44;24.95;;;16.02;;
25345;SDS011;13300;51.032;3.710;2023-02-12T12:53:45;21.00;;;14.68;;
25345;SDS011;13300;51.032;3.710;2023-02-12T13:27:38;23.65;;;16.20;;
25345;SDS011;13300;51.032;3.710;2023-02-12T13:30:20;25.65;;;17.88;;
25345;SDS011;13300;51.032;3.710;2023-02-12T13:36:18;24.70;;;17.13;;
25345;SDS011;13300;51.032;3.710;2023-02-12T13:38:59;26.65;;;18.27;;
25345;SDS011;13300;51.032;3.710;2023-02-12T13:41:28;27.77;;;18.25;;
25345;SDS011;13300;51.032;3.710;2023-02-12T13:44:00;27.70;;;17.38;;
25345;SDS011;13300;51.032;3.710;2023-02-12T13:46:43;27.50;;;17.08;;
25345;SDS011;13300;51.032;3.710;2023-02-12T13:57:38;31.17;;;18.10;;
25345;SDS011;13300;51.032;3.710;2023-02-12T14:00:04;29.63;;;17.95;;
25345;SDS011;13300;51.032;3.710;2023-02-12T14:02:51;28.35;;;16.85;;
25345;SDS011;13300;51.032;3.710;2023-02-12T14:08:05;25.88;;;16.92;;
25345;SDS011;13300;51.032;3.710;2023-02-12T14:10:41;28.92;;;18.33;;
25345;SDS011;13300;51.032;3.710;2023-02-12T14:13:18;28.17;;;16.60;;
25345;SDS011;13300;51.032;3.710;2023-02-12T14:15:51;24.95;;;15.60;;
25345;SDS011;13300;51.032;3.710;2023-02-12T14:18:29;24.88;;;15.30;;
25345;SDS011;13300;51.032;3.710;2023-02-12T14:23:56;25.75;;;15.85;;
25345;SDS011;13300;51.032;3.710;2023-02-12T14:27:20;25.55;;;14.38;;
25345;SDS011;13300;51.032;3.710;2023-02-12T14:37:51;27.92;;;16.90;;
25345;SDS011;13300;51.032;3.710;2023-02-12T14:43:01;25.25;;;15.85;;
25345;SDS011;13300;51.032;3.710;2023-02-12T14:45:47;24.08;;;15.07;;
25345;SDS011;13300;51.032;3.710;2023-02-12T14:51:13;20.38;;;14.20;;
25345;SDS011;13300;51.032;3.710;2023-02-12T14:53:45;23.85;;;14.38;;
25345;SDS011;13300;51.032;3.710;2023-02-12T14:58:45;27.90;;;16.02;;
25345;SDS011;13300;51.032;3.710;2023-02-12T15:01:12;24.75;;;15.27;;
25345;SDS011;13300;51.032;3.710;2023-02-12T15:03:43;22.70;;;14.30;;
25345;SDS011;13300;51.032;3.710;2023-02-12T15:06:17;26.13;;;15.77;;
25345;SDS011;13300;51.032;3.710;2023-02-12T15:08:56;27.50;;;16.40;;
25345;SDS011;13300;51.032;3.710;2023-02-12T15:22:23;26.42;;;15.30;;
25345;SDS011;13300;51.032;3.710;2023-02-12T15:25:13;26.77;;;15.93;;
25345;SDS011;13300;51.032;3.710;2023-02-12T15:27:48;31.25;;;17.52;;
25345;SDS011;13300;51.032;3.710;2023-02-12T15:30:23;24.73;;;15.40;;
25345;SDS011;13300;51.032;3.710;2023-02-12T15:32:53;27.30;;;16.45;;
25345;SDS011;13300;51.032;3.710;2023-02-12T15:35:25;27.50;;;17.48;;
25345;SDS011;13300;51.032;3.710;2023-02-12T15:37:53;25.70;;;16.55;;
25345;SDS011;13300;51.032;3.710;2023-02-12T15:40:21;25.55;;;15.75;;
25345;SDS011;13300;51.032;3.710;2023-02-12T15:43:01;26.35;;;16.42;;
25345;SDS011;13300;51.032;3.710;2023-02-12T15:45:30;31.02;;;16.65;;
25345;SDS011;13300;51.032;3.710;2023-02-12T15:48:06;29.05;;;17.48;;
25345;SDS011;13300;51.032;3.710;2023-02-12T15:50:46;27.90;;;16.77;;
25345;SDS011;13300;51.032;3.710;2023-02-12T15:53:27;31.92;;;18.85;;
25345;SDS011;13300;51.032;3.710;2023-02-12T15:55:56;28.83;;;16.90;;
25345;SDS011;13300;51.032;3.710;2023-02-12T15:58:24;28.73;;;17.38;;
25345;SDS011;13300;51.032;3.710;2023-02-12T16:00:53;30.13;;;16.55;;
25345;SDS011;13300;51.032;3.710;2023-02-12T16:05:55;27.27;;;16.70;;
25345;SDS011;13300;51.032;3.710;2023-02-12T16:08:30;26.55;;;16.42;;
25345;SDS011;13300;51.032;3.710;2023-02-12T16:10:58;30.40;;;15.68;;
25345;SDS011;13300;51.032;3.710;2023-02-12T16:13:30;26.40;;;16.42;;
25345;SDS011;13300;51.032;3.710;2023-02-12T16:16:04;26.00;;;15.80;;
25345;SDS011;13300;51.032;3.710;2023-02-12T16:18:37;25.50;;;15.50;;
25345;SDS011;13300;51.032;3.710;2023-02-12T16:21:17;24.73;;;13.88;;
25345;SDS011;13300;51.032;3.710;2023-02-12T16:23:44;25.08;;;15.02;;
25345;SDS011;13300;51.032;3.710;2023-02-12T16:26:16;26.10;;;14.90;;
25345;SDS011;13300;51.032;3.710;2023-02-12T16:28:45;23.20;;;14.73;;
25345;SDS011;13300;51.032;3.710;2023-02-12T16:31:14;29.73;;;15.90;;
25345;SDS011;13300;51.032;3.710;2023-02-12T16:33:48;26.27;;;14.85;;
25345;SDS011;13300;51.032;3.710;2023-02-12T16:38:50;28.48;;;15.88;;
25345;SDS011;13300;51.032;3.710;2023-02-12T16:43:43;23.98;;;13.52;;
25345;SDS011;13300;51.032;3.710;2023-02-12T16:46:09;25.10;;;13.90;;
25345;SDS011;13300;51.032;3.710;2023-02-12T16:48:40;21.60;;;13.40;;
25345;SDS011;13300;51.032;3.710;2023-02-12T16:51:21;23.73;;;12.35;;
25345;SDS011;13300;51.032;3.710;2023-02-12T16:53:50;19.73;;;12.25;;
25345;SDS011;13300;51.032;3.710;2023-02-12T16:56:18;20.13;;;11.98;;
25345;SDS011;13300;51.032;3.710;2023-02-12T16:58:49;17.98;;;11.35;;
25345;SDS011;13300;51.032;3.710;2023-02-12T17:01:25;23.20;;;12.57;;
25345;SDS011;13300;51.032;3.710;2023-02-12T17:03:53;21.08;;;12.68;;
25345;SDS011;13300;51.032;3.710;2023-02-12T17:06:21;22.85;;;12.32;;
25345;SDS011;13300;51.032;3.710;2023-02-12T17:08:52;20.23;;;13.05;;
25345;SDS011;13300;51.032;3.710;2023-02-12T17:11:18;30.50;;;14.07;;
25345;SDS011;13300;51.032;3.710;2023-02-12T17:13:44;22.45;;;12.93;;
25345;SDS011;13300;51.032;3.710;2023-02-12T17:16:12;21.35;;;12.63;;
25345;SDS011;13300;51.032;3.710;2023-02-12T17:18:39;27.05;;;14.32;;
25345;SDS011;13300;51.032;3.710;2023-02-12T17:21:13;24.13;;;14.70;;
25345;SDS011;13300;51.032;3.710;2023-02-12T17:23:42;22.58;;;13.63;;
25345;SDS011;13300;51.032;3.710;2023-02-12T17:26:09;22.58;;;12.90;;
25345;SDS011;13300;51.032;3.710;2023-02-12T17:28:36;24.27;;;14.45;;
25345;SDS011;13300;51.032;3.710;2023-02-12T17:31:03;25.50;;;14.40;;
25345;SDS011;13300;51.032;3.710;2023-02-12T17:33:30;26.23;;;14.75;;
25345;SDS011;13300;51.032;3.710;2023-02-12T17:35:57;23.70;;;14.65;;
25345;SDS011;13300;51.032;3.710;2023-02-12T17:38:23;28.77;;;15.85;;
25345;SDS011;13300;51.032;3.710;2023-02-12T17:40:49;29.33;;;16.08;;
25345;SDS011;13300;51.032;3.710;2023-02-12T17:43:15;28.88;;;16.15;;
25345;SDS011;13300;51.032;3.710;2023-02-12T17:45:41;26.48;;;15.65;;
25345;SDS011;13300;51.032;3.710;2023-02-12T17:48:08;29.48;;;15.77;;
25345;SDS011;13300;51.032;3.710;2023-02-12T17:50:38;30.08;;;16.35;;
25345;SDS011;13300;51.032;3.710;2023-02-12T17:53:04;29.15;;;16.50;;
25345;SDS011;13300;51.032;3.710;2023-02-12T17:55:30;33.20;;;17.40;;
25345;SDS011;13300;51.032;3.710;2023-02-12T17:57:56;30.05;;;16.80;;
25345;SDS011;13300;51.032;3.710;2023-02-12T18:00:23;31.50;;;16.67;;
25345;SDS011;13300;51.032;3.710;2023-02-12T18:02:49;33.58;;;17.25;;
25345;SDS011;13300;51.032;3.710;2023-02-12T18:05:15;30.75;;;17.00;;
25345;SDS011;13300;51.032;3.710;2023-02-12T18:07:41;32.03;;;18.50;;
25345;SDS011;13300;51.032;3.710;2023-02-12T18:10:07;30.73;;;18.27;;